createdAt,value
2023-06-17T00:00:48.629Z,9.07
2023-06-17T00:03:15.452Z,9.47
2023-06-17T00:05:42.930Z,8.43
2023-06-17T00:08:09.623Z,9.97
2023-06-17T00:10:36.287Z,10.33
2023-06-17T00:13:03.835Z,10.30
2023-06-17T00:15:34.310Z,10.33
2023-06-17T00:18:02.016Z,10.20
2023-06-17T00:20:30.116Z,9.77
2023-06-17T00:22:56.850Z,9.07
2023-06-17T00:25:23.660Z,10.00
2023-06-17T00:27:50.364Z,10.90
2023-06-17T00:30:16.989Z,10.20
2023-06-17T00:32:43.714Z,9.50
2023-06-17T00:35:10.495Z,9.37
2023-06-17T00:37:37.156Z,9.07
2023-06-17T00:40:08.960Z,9.60
2023-06-17T00:42:36.141Z,9.40
2023-06-17T00:45:03.552Z,10.70
2023-06-17T00:47:31.236Z,10.53
2023-06-17T00:49:58.238Z,11.83
2023-06-17T00:54:58.422Z,11.10
2023-06-17T00:57:25.470Z,10.80
2023-06-17T00:59:52.733Z,11.47
2023-06-17T01:02:20.881Z,11.90
2023-06-17T01:04:47.891Z,11.27
2023-06-17T01:07:24.831Z,10.27
2023-06-17T01:10:23.828Z,11.47
2023-06-17T01:12:51.209Z,11.50
2023-06-17T01:15:18.346Z,11.07
2023-06-17T01:17:47.417Z,11.57
2023-06-17T01:20:16.428Z,12.07
2023-06-17T01:22:46.004Z,11.70
2023-06-17T01:25:14.340Z,10.60
2023-06-17T01:27:42.409Z,12.20
2023-06-17T01:30:09.589Z,12.30
2023-06-17T01:32:36.933Z,12.93
2023-06-17T01:35:07.811Z,12.03
2023-06-17T01:37:49.349Z,12.17
2023-06-17T01:40:20.811Z,11.80
2023-06-17T01:42:49.897Z,12.03
2023-06-17T01:45:17.055Z,13.37
2023-06-17T01:47:44.001Z,13.53
2023-06-17T01:50:11.376Z,13.17
2023-06-17T01:52:38.260Z,12.87
2023-06-17T01:55:05.816Z,12.40
2023-06-17T01:57:32.533Z,11.60
2023-06-17T01:59:59.155Z,11.87
2023-06-17T02:02:25.872Z,11.33
2023-06-17T02:04:52.705Z,10.90
2023-06-17T02:07:19.435Z,10.63
2023-06-17T02:09:46.983Z,10.80
2023-06-17T02:12:14.054Z,10.87
2023-06-17T02:14:40.873Z,11.23
2023-06-17T02:17:09.558Z,10.57
2023-06-17T02:19:36.524Z,10.40
2023-06-17T02:22:03.401Z,9.67
2023-06-17T02:24:30.283Z,9.57
2023-06-17T02:26:57.603Z,9.23
2023-06-17T02:29:25.649Z,9.37
2023-06-17T02:31:52.727Z,9.43
2023-06-17T02:34:20.369Z,8.80
2023-06-17T02:36:47.593Z,9.00
2023-06-17T02:39:14.280Z,8.97
2023-06-17T02:41:40.992Z,9.67
2023-06-17T02:44:07.660Z,9.50
2023-06-17T02:46:34.413Z,8.70
2023-06-17T02:49:01.104Z,9.40
2023-06-17T02:51:29.032Z,8.97
2023-06-17T02:53:55.746Z,9.63
2023-06-17T02:56:22.458Z,10.37
2023-06-17T02:58:49.303Z,10.17
2023-06-17T03:01:17.559Z,9.60
2023-06-17T03:03:44.347Z,10.63
2023-06-17T03:06:11.118Z,10.40
2023-06-17T03:08:40.508Z,11.00
2023-06-17T03:11:07.563Z,10.83
2023-06-17T03:13:34.675Z,10.93
2023-06-17T03:16:02.447Z,11.37
2023-06-17T03:18:29.482Z,11.23
2023-06-17T03:20:56.268Z,11.07
2023-06-17T03:23:23.648Z,11.40
2023-06-17T03:25:51.329Z,10.83
2023-06-17T03:28:18.990Z,11.30
2023-06-17T03:30:46.175Z,11.47
2023-06-17T03:33:14.466Z,11.83
2023-06-17T03:35:41.498Z,11.73
2023-06-17T03:38:09.303Z,11.23
2023-06-17T03:40:36.505Z,11.53
2023-06-17T03:43:03.149Z,11.17
2023-06-17T03:45:31.638Z,10.77
2023-06-17T03:47:59.271Z,10.70
2023-06-17T03:50:27.257Z,11.13
2023-06-17T03:52:53.868Z,11.13
2023-06-17T03:55:20.645Z,11.60
2023-06-17T03:57:47.296Z,11.00
2023-06-17T04:00:16.889Z,10.87
2023-06-17T04:02:48.289Z,10.97
2023-06-17T04:05:16.466Z,11.07
2023-06-17T04:07:43.383Z,10.73
2023-06-17T04:10:10.930Z,11.30
2023-06-17T04:12:38.779Z,11.93
2023-06-17T04:15:07.199Z,12.30
2023-06-17T04:17:34.031Z,11.90
2023-06-17T04:20:09.901Z,12.23
2023-06-17T04:22:37.258Z,11.90
2023-06-17T04:25:09.072Z,12.37
2023-06-17T04:27:37.902Z,12.53
2023-06-17T04:30:09.673Z,12.07
2023-06-17T04:32:39.964Z,13.53
2023-06-17T04:35:07.592Z,12.70
2023-06-17T04:37:35.526Z,14.03
2023-06-17T04:40:03.260Z,14.43
2023-06-17T04:42:34.877Z,14.07
2023-06-17T04:45:02.743Z,14.77
2023-06-17T04:47:29.688Z,13.77
2023-06-17T04:50:00.226Z,14.50
2023-06-17T04:52:30.787Z,14.57
2023-06-17T04:54:57.400Z,14.00
2023-06-17T04:57:24.238Z,14.40
2023-06-17T04:59:51.161Z,14.80
2023-06-17T05:02:17.812Z,13.27
2023-06-17T05:04:44.450Z,14.73
2023-06-17T05:07:11.149Z,15.10
2023-06-17T05:09:37.925Z,14.87
2023-06-17T05:12:04.847Z,14.10
2023-06-17T05:14:31.551Z,14.17
2023-06-17T05:16:58.816Z,13.37
2023-06-17T05:19:25.628Z,14.20
2023-06-17T05:21:52.261Z,13.57
2023-06-17T05:24:19.038Z,13.40
2023-06-17T05:26:45.660Z,12.70
2023-06-17T05:29:12.278Z,13.63
2023-06-17T05:31:38.912Z,13.03
2023-06-17T05:34:05.668Z,12.07
2023-06-17T05:36:32.292Z,13.33
2023-06-17T05:38:58.886Z,12.18
2023-06-17T05:41:25.755Z,13.43
2023-06-17T05:43:52.428Z,13.35
2023-06-17T05:46:19.113Z,12.30
2023-06-17T05:48:45.776Z,13.13
2023-06-17T05:51:12.429Z,12.43
2023-06-17T05:53:39.026Z,12.18
2023-06-17T05:56:10.071Z,13.70
2023-06-17T05:58:37.258Z,14.32
2023-06-17T06:01:04.163Z,14.23
2023-06-17T06:03:30.833Z,14.47
2023-06-17T06:06:00.959Z,15.33
2023-06-17T06:08:27.800Z,15.40
2023-06-17T06:10:54.700Z,15.40
2023-06-17T06:13:21.481Z,15.57
2023-06-17T06:15:48.355Z,15.67
2023-06-17T06:18:15.644Z,15.13
2023-06-17T06:20:46.290Z,15.83
2023-06-17T06:23:12.981Z,15.33
2023-06-17T06:25:39.791Z,14.67
2023-06-17T06:28:07.002Z,15.67
2023-06-17T06:30:33.681Z,15.67
2023-06-17T06:33:00.601Z,15.57
2023-06-17T06:35:27.328Z,14.20
2023-06-17T06:37:53.951Z,14.80
2023-06-17T06:40:21.058Z,14.80
2023-06-17T06:42:47.979Z,14.30
2023-06-17T06:45:14.812Z,14.50
2023-06-17T06:47:41.547Z,13.70
2023-06-17T06:50:08.629Z,13.63
2023-06-17T06:52:35.623Z,14.07
2023-06-17T06:55:02.266Z,13.32
2023-06-17T06:57:28.892Z,14.20
2023-06-17T06:59:56.182Z,13.48
2023-06-17T07:02:25.969Z,13.93
2023-06-17T07:04:53.307Z,13.38
2023-06-17T07:07:20.084Z,14.10
2023-06-17T07:09:46.706Z,14.15
2023-06-17T07:12:13.502Z,13.43
2023-06-17T07:14:40.259Z,13.73
2023-06-17T07:17:07.087Z,14.18
2023-06-17T07:19:33.816Z,14.48
2023-06-17T07:22:00.597Z,15.43
2023-06-17T07:24:27.296Z,15.23
2023-06-17T07:26:54.009Z,14.00
2023-06-17T07:29:21.636Z,14.88
2023-06-17T07:31:48.368Z,14.25
2023-06-17T07:34:15.677Z,14.57
2023-06-17T07:36:42.385Z,14.60
2023-06-17T07:39:09.209Z,13.98
2023-06-17T07:41:35.992Z,13.85
2023-06-17T07:44:02.700Z,14.05
2023-06-17T07:46:29.382Z,14.70
2023-06-17T07:48:56.041Z,14.38
2023-06-17T07:51:22.736Z,13.73
2023-06-17T07:53:49.331Z,14.75
2023-06-17T07:56:15.929Z,13.35
2023-06-17T07:58:44.352Z,13.25
2023-06-17T08:01:11.204Z,13.52
2023-06-17T08:03:37.990Z,13.60
2023-06-17T08:06:04.783Z,13.00
2023-06-17T08:08:31.425Z,13.23
2023-06-17T08:10:58.056Z,13.25
2023-06-17T08:13:24.672Z,12.65
2023-06-17T08:15:52.812Z,12.27
2023-06-17T08:18:19.514Z,12.77
2023-06-17T08:20:46.129Z,12.02
2023-06-17T08:23:12.767Z,12.65
2023-06-17T08:25:40.348Z,12.30
2023-06-17T08:28:07.339Z,12.40
2023-06-17T08:30:34.188Z,11.90
2023-06-17T08:33:00.832Z,11.25
2023-06-17T08:35:27.592Z,10.43
2023-06-17T08:37:54.368Z,11.65
2023-06-17T08:40:23.940Z,12.73
2023-06-17T08:43:02.277Z,11.73
2023-06-17T08:45:29.974Z,11.23
2023-06-17T08:47:58.164Z,12.25
2023-06-17T08:50:27.760Z,14.18
2023-06-17T08:52:55.431Z,12.00
2023-06-17T08:55:22.254Z,11.52
2023-06-17T08:57:52.178Z,12.38
2023-06-17T09:00:19.573Z,12.80
2023-06-17T09:02:47.013Z,11.50
2023-06-17T09:05:13.988Z,11.18
2023-06-17T09:07:42.515Z,11.75
2023-06-17T09:10:12.201Z,11.95
2023-06-17T09:12:39.944Z,12.50
2023-06-17T09:15:08.521Z,12.02
2023-06-17T09:17:38.022Z,11.73
2023-06-17T09:20:16.091Z,11.68
2023-06-17T09:22:47.661Z,11.43
2023-06-17T09:25:16.641Z,10.95
2023-06-17T09:28:05.358Z,11.60
2023-06-17T09:30:38.280Z,11.00
2023-06-17T09:33:18.863Z,12.68
2023-06-17T09:35:46.047Z,11.05
2023-06-17T09:38:16.873Z,11.13
2023-06-17T09:40:43.738Z,11.30
2023-06-17T09:43:26.959Z,12.32
2023-06-17T09:46:01.034Z,11.10
2023-06-17T09:48:38.398Z,11.27
2023-06-17T09:51:10.384Z,11.80
2023-06-17T09:53:38.548Z,10.40
2023-06-17T09:56:09.947Z,10.02
2023-06-17T09:58:37.114Z,9.77
2023-06-17T10:01:06.907Z,10.52
2023-06-17T10:03:34.893Z,8.95
2023-06-17T10:06:12.641Z,10.25
2023-06-17T10:08:44.473Z,10.43
2023-06-17T10:11:14.268Z,9.98
2023-06-17T10:13:42.838Z,10.80
2023-06-17T10:16:15.599Z,9.35
2023-06-17T10:18:45.769Z,10.93
2023-06-17T10:21:14.269Z,10.20
2023-06-17T10:23:43.240Z,9.65
2023-06-17T10:26:13.099Z,10.68
2023-06-17T10:29:11.549Z,10.10
2023-06-17T10:31:40.613Z,10.70
2023-06-17T10:34:16.163Z,10.90
2023-06-17T10:36:43.060Z,10.30
2023-06-17T10:39:11.996Z,11.02
2023-06-17T10:41:41.322Z,10.20
2023-06-17T10:44:36.260Z,9.93
2023-06-17T10:47:15.328Z,10.45
2023-06-17T10:49:43.278Z,10.13
2023-06-17T10:52:14.894Z,9.40
2023-06-17T10:54:59.742Z,9.00
2023-06-17T10:57:34.372Z,9.60
2023-06-17T11:00:07.320Z,9.60
2023-06-17T11:02:33.978Z,7.88
2023-06-17T11:05:02.726Z,6.85
2023-06-17T11:07:29.941Z,7.38
2023-06-17T11:09:57.093Z,6.80
2023-06-17T11:12:23.706Z,8.00
2023-06-17T11:14:50.409Z,8.60
2023-06-17T11:17:17.129Z,7.68
2023-06-17T11:19:44.283Z,8.48
2023-06-17T11:22:10.980Z,9.18
2023-06-17T11:24:37.751Z,9.68
2023-06-17T11:27:11.789Z,9.57
2023-06-17T11:29:42.141Z,8.90
2023-06-17T11:32:09.291Z,8.45
2023-06-17T11:34:36.123Z,8.63
2023-06-17T11:37:07.536Z,9.32
2023-06-17T11:39:38.979Z,9.18
2023-06-17T11:42:06.903Z,9.50
2023-06-17T11:44:35.642Z,9.93
2023-06-17T11:47:10.453Z,9.70
2023-06-17T11:49:41.856Z,11.45
2023-06-17T11:52:10.753Z,10.55
2023-06-17T11:54:46.689Z,11.02
2023-06-17T11:57:18.745Z,11.88
2023-06-17T11:59:45.748Z,11.50
2023-06-17T12:02:12.740Z,11.13
2023-06-17T12:04:39.947Z,11.18
2023-06-17T12:07:07.916Z,9.13
2023-06-17T12:09:54.802Z,6.40
2023-06-17T12:12:35.602Z,5.25
2023-06-17T12:17:47.709Z,5.07
2023-06-17T12:20:21.730Z,5.00
2023-06-17T12:22:50.489Z,5.18
2023-06-17T12:25:17.366Z,4.53
2023-06-17T12:27:44.551Z,4.47
2023-06-17T12:30:12.321Z,4.55
2023-06-17T12:32:42.148Z,4.75
2023-06-17T12:35:11.200Z,4.88
2023-06-17T12:37:40.958Z,4.93
2023-06-17T12:40:08.641Z,4.63
2023-06-17T12:42:35.870Z,4.70
2023-06-17T12:45:03.153Z,5.32
2023-06-17T12:47:29.970Z,5.50
2023-06-17T12:49:56.615Z,5.40
2023-06-17T12:52:23.280Z,5.88
2023-06-17T12:54:58.862Z,5.80
2023-06-17T12:57:26.619Z,6.53
2023-06-17T12:59:53.599Z,6.22
2023-06-17T13:02:20.367Z,6.32
2023-06-17T13:04:47.080Z,6.70
2023-06-17T13:07:13.798Z,6.38
2023-06-17T13:09:40.609Z,6.53
2023-06-17T13:12:07.589Z,6.57
2023-06-17T13:14:35.467Z,6.55
2023-06-17T13:17:02.292Z,6.45
2023-06-17T13:19:28.964Z,6.55
2023-06-17T13:21:56.032Z,7.72
2023-06-17T13:24:22.677Z,6.80
2023-06-17T13:26:49.320Z,5.90
2023-06-17T13:29:15.973Z,6.20
2023-06-17T13:31:42.650Z,6.50
2023-06-17T13:34:09.839Z,5.85
2023-06-17T13:36:37.206Z,6.65
2023-06-17T13:39:04.063Z,6.10
2023-06-17T13:41:31.849Z,6.68
2023-06-17T13:43:58.534Z,6.28
2023-06-17T13:46:25.203Z,6.85
2023-06-17T13:48:52.078Z,6.30
2023-06-17T13:51:19.380Z,6.05
2023-06-17T13:53:46.106Z,6.60
2023-06-17T13:56:12.954Z,6.15
2023-06-17T13:58:39.730Z,6.00
2023-06-17T14:01:06.399Z,6.35
2023-06-17T14:03:33.180Z,5.72
2023-06-17T14:05:59.924Z,5.47
2023-06-17T14:08:26.577Z,4.55
2023-06-17T14:10:53.241Z,5.20
2023-06-17T14:13:19.877Z,5.10
2023-06-17T14:15:46.592Z,4.90
2023-06-17T14:18:13.184Z,5.00
2023-06-17T14:20:39.950Z,4.78
2023-06-17T14:23:08.706Z,4.90
2023-06-17T14:25:35.808Z,4.68
2023-06-17T14:28:02.736Z,4.63
2023-06-17T14:30:29.377Z,3.78
2023-06-17T14:32:56.070Z,4.03
2023-06-17T14:35:22.771Z,4.00
2023-06-17T14:37:50.112Z,4.35
2023-06-17T14:40:17.565Z,4.50
2023-06-17T14:42:44.315Z,5.20
2023-06-17T14:45:13.352Z,5.40
2023-06-17T14:47:40.937Z,5.45
2023-06-17T14:50:09.442Z,4.90
2023-06-17T14:52:36.082Z,5.00
2023-06-17T14:55:03.027Z,4.95
2023-06-17T14:57:33.298Z,5.30
2023-06-17T15:00:00.705Z,5.55
2023-06-17T15:02:50.566Z,5.15
2023-06-17T15:05:17.727Z,4.80
2023-06-17T15:07:44.679Z,4.95
2023-06-17T15:10:11.548Z,4.88
2023-06-17T15:12:42.709Z,4.68
2023-06-17T15:15:11.443Z,5.40
2023-06-17T15:17:38.468Z,4.80
2023-06-17T15:20:06.062Z,4.82
2023-06-17T15:22:32.769Z,4.80
2023-06-17T15:24:59.525Z,4.93
2023-06-17T15:27:26.183Z,4.40
2023-06-17T15:29:52.791Z,3.50
2023-06-17T15:32:22.010Z,3.50
2023-06-17T15:34:49.769Z,4.00
2023-06-17T15:37:16.418Z,3.63
2023-06-17T15:39:43.105Z,4.10
2023-06-17T15:42:09.921Z,3.92
2023-06-17T15:44:36.567Z,4.60
2023-06-17T15:47:03.384Z,4.47
2023-06-17T15:49:30.049Z,4.32
2023-06-17T15:51:56.677Z,4.53
2023-06-17T15:54:26.519Z,4.25
2023-06-17T15:56:53.427Z,4.53
2023-06-17T15:59:20.432Z,5.30
2023-06-17T16:01:47.609Z,4.53
2023-06-17T16:04:32.249Z,4.32
2023-06-17T16:07:00.102Z,4.75
2023-06-17T16:09:27.100Z,4.57
2023-06-17T16:11:53.767Z,5.38
2023-06-17T16:14:20.421Z,4.95
2023-06-17T16:16:47.076Z,5.22
2023-06-17T16:19:13.732Z,4.70
2023-06-17T16:21:40.472Z,4.75
2023-06-17T16:24:07.540Z,5.22
2023-06-17T16:26:34.348Z,5.15
2023-06-17T16:29:00.992Z,4.78
2023-06-17T16:31:27.639Z,5.25
2023-06-17T16:33:55.097Z,4.88
2023-06-17T16:36:22.282Z,4.88
2023-06-17T16:38:48.921Z,4.57
2023-06-17T16:41:15.811Z,4.28
2023-06-17T16:43:42.523Z,4.30
2023-06-17T16:46:09.149Z,4.53
2023-06-17T16:48:35.790Z,4.25
2023-06-17T16:51:06.776Z,4.30
2023-06-17T16:53:34.015Z,4.63
2023-06-17T16:56:01.724Z,4.30
2023-06-17T16:58:31.419Z,4.63
2023-06-17T17:00:58.076Z,4.28
2023-06-17T17:03:24.844Z,5.10
2023-06-17T17:05:51.691Z,4.55
2023-06-17T17:08:18.404Z,5.18
2023-06-17T17:10:45.038Z,4.88
2023-06-17T17:13:11.644Z,4.70
2023-06-17T17:15:38.311Z,5.00
2023-06-17T17:18:05.308Z,5.10
2023-06-17T17:20:32.266Z,4.85
2023-06-17T17:22:58.937Z,5.28
2023-06-17T17:25:25.650Z,4.90
2023-06-17T17:27:52.306Z,5.13
2023-06-17T17:30:19.365Z,5.35
2023-06-17T17:32:48.284Z,5.28
2023-06-17T17:35:14.915Z,5.10
2023-06-17T17:37:42.277Z,4.90
2023-06-17T17:40:09.438Z,5.25
2023-06-17T17:42:36.122Z,5.68
2023-06-17T17:45:02.833Z,5.30
2023-06-17T17:47:29.531Z,5.32
2023-06-17T17:49:56.297Z,4.85
2023-06-17T17:52:23.374Z,5.20
2023-06-17T17:55:01.096Z,4.90
2023-06-17T17:57:28.772Z,5.15
2023-06-17T17:59:55.547Z,5.40
2023-06-17T18:02:22.715Z,5.32
2023-06-17T18:04:49.483Z,5.50
2023-06-17T18:07:16.156Z,6.18
2023-06-17T18:09:42.980Z,6.00
2023-06-17T18:12:09.963Z,5.72
2023-06-17T18:14:36.637Z,5.70
2023-06-17T18:17:04.159Z,6.15
2023-06-17T18:19:30.940Z,5.72
2023-06-17T18:21:57.620Z,6.03
2023-06-17T18:24:24.271Z,5.57
2023-06-17T18:26:51.063Z,6.25
2023-06-17T18:29:18.445Z,6.05
2023-06-17T18:31:45.088Z,6.22
2023-06-17T18:34:11.709Z,5.97
2023-06-17T18:36:38.412Z,5.68
2023-06-17T18:39:05.069Z,6.00
2023-06-17T18:41:33.990Z,5.95
2023-06-17T18:44:00.870Z,5.90
2023-06-17T18:46:27.646Z,6.20
2023-06-17T18:48:55.093Z,5.85
2023-06-17T18:51:21.720Z,6.10
2023-06-17T18:53:48.423Z,6.35
2023-06-17T18:56:15.027Z,6.45
2023-06-17T18:58:41.642Z,6.65
2023-06-17T19:01:08.299Z,8.38
2023-06-17T19:03:35.827Z,7.10
2023-06-17T19:06:02.513Z,6.45
2023-06-17T19:08:29.155Z,6.40
2023-06-17T19:10:56.216Z,6.97
2023-06-17T19:13:22.911Z,6.70
2023-06-17T19:15:49.577Z,7.35
2023-06-17T19:18:16.347Z,7.15
2023-06-17T19:20:42.996Z,7.88
2023-06-17T19:23:10.005Z,8.35
2023-06-17T19:25:36.725Z,9.25
2023-06-17T19:28:03.914Z,8.38
2023-06-17T19:30:30.522Z,8.93
2023-06-17T19:32:57.340Z,8.38
2023-06-17T19:35:24.030Z,8.65
2023-06-17T19:37:50.643Z,9.43
2023-06-17T19:40:19.877Z,9.48
2023-06-17T19:42:46.772Z,9.20
2023-06-17T19:45:13.632Z,8.93
2023-06-17T19:47:40.298Z,9.52
2023-06-17T19:50:07.442Z,9.95
2023-06-17T19:52:34.180Z,9.55
2023-06-17T19:55:00.925Z,9.70
2023-06-17T19:57:27.504Z,9.02
2023-06-17T19:59:54.231Z,9.27
2023-06-17T20:02:20.988Z,8.82
2023-06-17T20:04:47.657Z,9.27
2023-06-17T20:07:14.300Z,8.57
2023-06-17T20:09:40.912Z,8.70
2023-06-17T20:12:07.898Z,9.23
2023-06-17T20:14:34.542Z,8.90
2023-06-17T20:17:02.106Z,8.88
2023-06-17T20:19:28.774Z,8.70
2023-06-17T20:21:55.371Z,9.40
2023-06-17T20:24:22.622Z,8.98
2023-06-17T20:26:49.442Z,10.07
2023-06-17T20:29:16.077Z,10.05
2023-06-17T20:31:42.710Z,10.05
2023-06-17T20:34:12.339Z,10.25
2023-06-17T20:36:38.940Z,10.55
2023-06-17T20:39:06.956Z,10.55
2023-06-17T20:41:33.610Z,11.50
2023-06-17T20:44:00.205Z,11.38
2023-06-17T20:46:29.044Z,11.60
2023-06-17T20:48:56.020Z,10.77
2023-06-17T20:51:23.169Z,11.02
2023-06-17T20:53:49.818Z,10.68
2023-06-17T20:56:16.460Z,12.18
2023-06-17T20:58:43.067Z,11.35
2023-06-17T21:01:14.786Z,12.07
2023-06-17T21:03:41.445Z,12.23
2023-06-17T21:06:08.077Z,12.07
2023-06-17T21:08:34.695Z,10.20
2023-06-17T21:11:01.346Z,11.20
2023-06-17T21:13:27.907Z,11.77
2023-06-17T21:15:54.582Z,13.52
2023-06-17T21:18:21.532Z,12.90
2023-06-17T21:20:48.230Z,12.48
2023-06-17T21:23:15.393Z,12.88
2023-06-17T21:25:42.105Z,13.75
2023-06-17T21:28:08.726Z,14.38
2023-06-17T21:30:35.369Z,15.18
2023-06-17T21:33:02.017Z,15.10
2023-06-17T21:35:28.697Z,16.08
2023-06-17T21:37:55.373Z,14.52
2023-06-17T21:40:22.356Z,14.52
2023-06-17T21:42:49.355Z,14.43
2023-06-17T21:45:16.770Z,16.05
2023-06-17T21:47:43.519Z,16.08
2023-06-17T21:50:10.699Z,16.50
2023-06-17T21:52:37.349Z,15.27
2023-06-17T21:55:04.271Z,15.13
2023-06-17T21:57:30.885Z,18.38
2023-06-17T21:59:57.596Z,15.85
2023-06-17T22:02:24.610Z,15.95
2023-06-17T22:04:52.903Z,16.30
2023-06-17T22:07:19.666Z,16.45
2023-06-17T22:09:46.266Z,16.48
2023-06-17T22:12:12.887Z,17.38
2023-06-17T22:14:39.475Z,17.48
2023-06-17T22:17:06.389Z,16.73
2023-06-17T22:19:33.018Z,17.30
2023-06-17T22:21:59.969Z,18.53
2023-06-17T22:24:26.673Z,17.25
2023-06-17T22:26:53.297Z,17.45
2023-06-17T22:29:19.921Z,16.60
2023-06-17T22:31:46.553Z,17.27
2023-06-17T22:34:13.166Z,16.17
2023-06-17T22:36:39.755Z,18.63
2023-06-17T22:39:06.334Z,17.83
2023-06-17T22:41:32.938Z,19.17
2023-06-17T22:44:00.272Z,18.90
2023-06-17T22:46:27.084Z,18.93
2023-06-17T22:48:53.973Z,19.27
2023-06-17T22:51:20.947Z,19.30
2023-06-17T22:53:49.548Z,19.40
2023-06-17T22:56:17.238Z,19.20
2023-06-17T22:58:45.054Z,19.75
2023-06-17T23:01:11.932Z,19.07
2023-06-17T23:03:38.611Z,19.30
2023-06-17T23:06:05.461Z,19.27
2023-06-17T23:08:32.050Z,19.13
2023-06-17T23:10:58.651Z,18.93
2023-06-17T23:13:25.285Z,18.58
2023-06-17T23:15:51.875Z,18.87
2023-06-17T23:18:18.506Z,18.90
2023-06-17T23:20:46.976Z,17.60
2023-06-17T23:23:13.717Z,18.50
2023-06-17T23:25:40.832Z,18.40
2023-06-17T23:28:09.584Z,18.80
2023-06-17T23:30:39.084Z,19.93
2023-06-17T23:33:05.972Z,19.50
2023-06-17T23:35:32.616Z,18.10
2023-06-17T23:38:00.012Z,19.30
2023-06-17T23:40:26.789Z,18.70
2023-06-17T23:42:53.404Z,18.63
2023-06-17T23:45:20.741Z,17.90
2023-06-17T23:47:47.434Z,18.27
2023-06-17T23:50:14.116Z,18.63
2023-06-17T23:52:40.854Z,18.47
2023-06-17T23:55:07.764Z,19.37
2023-06-17T23:57:34.375Z,19.00
